<?xml version="1.0" encoding="UTF-8"?>
<gpx xmlns="http://www.topografix.com/GPX/1/1" xmlns:xsi="http://www.w3.org/2001/XMLSchema-instance" version="1.1" xsi:schemaLocation="http://www.topografix.com/GPX/1/1 http://www.topografix.com/GPX/1/1/gpx.xsd">
  <metadata>
    <name>Eastbourne Triathlon - Supersprint Aquabike</name>
  </metadata>
  <trk>
    <name>Eastbourne Triathlon - Supersprint Aquabike</name>
    <trkseg>
      <trkpt lat="50.759779" lon="0.283483">
        <ele>8.391922</ele>
        <time>2025-06-08T08:06:00.000Z</time>
      </trkpt>
      <trkpt lat="50.759523" lon="0.283208">
        <ele>8.391911</ele>
        <time>2025-06-08T08:06:03.000Z</time>
      </trkpt>
      <trkpt lat="50.759568" lon="0.283109">
        <ele>8.391922</ele>
        <time>2025-06-08T08:06:04.000Z</time>
      </trkpt>
      <trkpt lat="50.759395" lon="0.282889">
        <ele>8.391913</ele>
        <time>2025-06-08T08:06:06.000Z</time>
      </trkpt>
      <trkpt lat="50.759274" lon="0.282716">
        <ele>8.391912</ele>
        <time>2025-06-08T08:06:08.000Z</time>
      </trkpt>
      <trkpt lat="50.758787" lon="0.281831">
        <ele>9.128725</ele>
        <time>2025-06-08T08:06:16.000Z</time>
      </trkpt>
      <trkpt lat="50.758582" lon="0.281465">
        <ele>9.50206</ele>
        <time>2025-06-08T08:06:19.000Z</time>
      </trkpt>
      <trkpt lat="50.757497" lon="0.278999">
        <ele>11.981674</ele>
        <time>2025-06-08T08:06:40.000Z</time>
      </trkpt>
      <trkpt lat="50.757064" lon="0.277943">
        <ele>13.119265</ele>
        <time>2025-06-08T08:06:49.000Z</time>
      </trkpt>
      <trkpt lat="50.756396" lon="0.276275">
        <ele>16.53203</ele>
        <time>2025-06-08T08:07:03.000Z</time>
      </trkpt>
      <trkpt lat="50.756168" lon="0.275768">
        <ele>17.582208</ele>
        <time>2025-06-08T08:07:07.000Z</time>
      </trkpt>
      <trkpt lat="50.755676" lon="0.274726">
        <ele>19.877294</ele>
        <time>2025-06-08T08:07:16.000Z</time>
      </trkpt>
      <trkpt lat="50.755423" lon="0.274256">
        <ele>20.972241</ele>
        <time>2025-06-08T08:07:20.000Z</time>
      </trkpt>
      <trkpt lat="50.75502" lon="0.273494">
        <ele>22.730804</ele>
        <time>2025-06-08T08:07:27.000Z</time>
      </trkpt>
      <trkpt lat="50.754672" lon="0.272848">
        <ele>24.884685</ele>
        <time>2025-06-08T08:07:33.000Z</time>
      </trkpt>
      <trkpt lat="50.753889" lon="0.271307">
        <ele>30.264031</ele>
        <time>2025-06-08T08:07:47.000Z</time>
      </trkpt>
      <trkpt lat="50.753726" lon="0.270923">
        <ele>32.060143</ele>
        <time>2025-06-08T08:07:50.000Z</time>
      </trkpt>
      <trkpt lat="50.753359" lon="0.270091">
        <ele>36.552151</ele>
        <time>2025-06-08T08:07:57.000Z</time>
      </trkpt>
      <trkpt lat="50.753236" lon="0.269816">
        <ele>37.978684</ele>
        <time>2025-06-08T08:07:59.000Z</time>
      </trkpt>
      <trkpt lat="50.753115" lon="0.269555">
        <ele>39.465322</ele>
        <time>2025-06-08T08:08:01.000Z</time>
      </trkpt>
      <trkpt lat="50.75257" lon="0.26847">
        <ele>45.737689</ele>
        <time>2025-06-08T08:08:11.000Z</time>
      </trkpt>
      <trkpt lat="50.752476" lon="0.268265">
        <ele>47.017051</ele>
        <time>2025-06-08T08:08:13.000Z</time>
      </trkpt>
      <trkpt lat="50.752088" lon="0.267466">
        <ele>51.941213</ele>
        <time>2025-06-08T08:08:20.000Z</time>
      </trkpt>
      <trkpt lat="50.752028" lon="0.267249">
        <ele>53.080417</ele>
        <time>2025-06-08T08:08:22.000Z</time>
      </trkpt>
      <trkpt lat="50.752104" lon="0.267063">
        <ele>54.142011</ele>
        <time>2025-06-08T08:08:24.000Z</time>
      </trkpt>
      <trkpt lat="50.752544" lon="0.266593">
        <ele>58.515063</ele>
        <time>2025-06-08T08:08:30.000Z</time>
      </trkpt>
      <trkpt lat="50.752634" lon="0.266392">
        <ele>60.146411</ele>
        <time>2025-06-08T08:08:32.000Z</time>
      </trkpt>
      <trkpt lat="50.752645" lon="0.266163">
        <ele>61.595049</ele>
        <time>2025-06-08T08:08:34.000Z</time>
      </trkpt>
      <trkpt lat="50.752586" lon="0.265951">
        <ele>63.05441</ele>
        <time>2025-06-08T08:08:36.000Z</time>
      </trkpt>
      <trkpt lat="50.752379" lon="0.265125">
        <ele>68.715736</ele>
        <time>2025-06-08T08:08:42.000Z</time>
      </trkpt>
      <trkpt lat="50.752159" lon="0.264011">
        <ele>76.052725</ele>
        <time>2025-06-08T08:08:50.000Z</time>
      </trkpt>
      <trkpt lat="50.752097" lon="0.263394">
        <ele>79.040837</ele>
        <time>2025-06-08T08:08:54.000Z</time>
      </trkpt>
      <trkpt lat="50.75202" lon="0.262268">
        <ele>84.612058</ele>
        <time>2025-06-08T08:09:02.000Z</time>
      </trkpt>
      <trkpt lat="50.751995" lon="0.262092">
        <ele>85.536116</ele>
        <time>2025-06-08T08:09:03.000Z</time>
      </trkpt>
      <trkpt lat="50.751957" lon="0.261795">
        <ele>86.947934</ele>
        <time>2025-06-08T08:09:05.000Z</time>
      </trkpt>
      <trkpt lat="50.751954" lon="0.261612">
        <ele>87.877652</ele>
        <time>2025-06-08T08:09:06.000Z</time>
      </trkpt>
      <trkpt lat="50.751921" lon="0.261288">
        <ele>89.322242</ele>
        <time>2025-06-08T08:09:08.000Z</time>
      </trkpt>
      <trkpt lat="50.751974" lon="0.261072">
        <ele>89.571669</ele>
        <time>2025-06-08T08:09:10.000Z</time>
      </trkpt>
      <trkpt lat="50.752026" lon="0.261">
        <ele>89.702402</ele>
        <time>2025-06-08T08:09:11.000Z</time>
      </trkpt>
      <trkpt lat="50.753428" lon="0.259873">
        <ele>92.393458</ele>
        <time>2025-06-08T08:09:28.000Z</time>
      </trkpt>
      <trkpt lat="50.753469" lon="0.259807">
        <ele>92.857639</ele>
        <time>2025-06-08T08:09:29.000Z</time>
      </trkpt>
      <trkpt lat="50.753508" lon="0.259691">
        <ele>93.365179</ele>
        <time>2025-06-08T08:09:30.000Z</time>
      </trkpt>
      <trkpt lat="50.753478" lon="0.25953">
        <ele>94.044651</ele>
        <time>2025-06-08T08:09:31.000Z</time>
      </trkpt>
      <trkpt lat="50.753455" lon="0.259448">
        <ele>94.460577</ele>
        <time>2025-06-08T08:09:32.000Z</time>
      </trkpt>
      <trkpt lat="50.753313" lon="0.259335">
        <ele>95.439387</ele>
        <time>2025-06-08T08:09:34.000Z</time>
      </trkpt>
      <trkpt lat="50.752169" lon="0.259691">
        <ele>103.169292</ele>
        <time>2025-06-08T08:09:47.000Z</time>
      </trkpt>
      <trkpt lat="50.752091" lon="0.259694">
        <ele>103.668026</ele>
        <time>2025-06-08T08:09:48.000Z</time>
      </trkpt>
      <trkpt lat="50.751983" lon="0.259608">
        <ele>104.267576</ele>
        <time>2025-06-08T08:09:49.000Z</time>
      </trkpt>
      <trkpt lat="50.751958" lon="0.259509">
        <ele>104.270063</ele>
        <time>2025-06-08T08:09:50.000Z</time>
      </trkpt>
      <trkpt lat="50.751944" lon="0.259412">
        <ele>104.27255</ele>
        <time>2025-06-08T08:09:51.000Z</time>
      </trkpt>
      <trkpt lat="50.751981" lon="0.259221">
        <ele>104.277358</ele>
        <time>2025-06-08T08:09:52.000Z</time>
      </trkpt>
      <trkpt lat="50.752038" lon="0.259114">
        <ele>104.280262</ele>
        <time>2025-06-08T08:09:53.000Z</time>
      </trkpt>
      <trkpt lat="50.752698" lon="0.258583">
        <ele>104.307395</ele>
        <time>2025-06-08T08:10:01.000Z</time>
      </trkpt>
      <trkpt lat="50.752808" lon="0.25855">
        <ele>104.311961</ele>
        <time>2025-06-08T08:10:02.000Z</time>
      </trkpt>
      <trkpt lat="50.753061" lon="0.258565">
        <ele>104.321431</ele>
        <time>2025-06-08T08:10:05.000Z</time>
      </trkpt>
      <trkpt lat="50.753207" lon="0.25866">
        <ele>104.326842</ele>
        <time>2025-06-08T08:10:07.000Z</time>
      </trkpt>
      <trkpt lat="50.753587" lon="0.258995">
        <ele>105.217419</ele>
        <time>2025-06-08T08:10:12.000Z</time>
      </trkpt>
      <trkpt lat="50.754128" lon="0.259328">
        <ele>107.104018</ele>
        <time>2025-06-08T08:10:18.000Z</time>
      </trkpt>
      <trkpt lat="50.754308" lon="0.259343">
        <ele>107.652158</ele>
        <time>2025-06-08T08:10:20.000Z</time>
      </trkpt>
      <trkpt lat="50.75439" lon="0.259277">
        <ele>107.920533</ele>
        <time>2025-06-08T08:10:21.000Z</time>
      </trkpt>
      <trkpt lat="50.754498" lon="0.259074">
        <ele>108.460845</ele>
        <time>2025-06-08T08:10:23.000Z</time>
      </trkpt>
      <trkpt lat="50.754536" lon="0.258852">
        <ele>108.926079</ele>
        <time>2025-06-08T08:10:25.000Z</time>
      </trkpt>
      <trkpt lat="50.754537" lon="0.25867">
        <ele>109.315271</ele>
        <time>2025-06-08T08:10:26.000Z</time>
      </trkpt>
      <trkpt lat="50.754411" lon="0.25746">
        <ele>115.057441</ele>
        <time>2025-06-08T08:10:35.000Z</time>
      </trkpt>
      <trkpt lat="50.754408" lon="0.256794">
        <ele>118.986685</ele>
        <time>2025-06-08T08:10:40.000Z</time>
      </trkpt>
      <trkpt lat="50.754453" lon="0.256449">
        <ele>121.008296</ele>
        <time>2025-06-08T08:10:42.000Z</time>
      </trkpt>
      <trkpt lat="50.754575" lon="0.255748">
        <ele>125.238946</ele>
        <time>2025-06-08T08:10:47.000Z</time>
      </trkpt>
      <trkpt lat="50.754651" lon="0.255481">
        <ele>126.871426</ele>
        <time>2025-06-08T08:10:49.000Z</time>
      </trkpt>
      <trkpt lat="50.75469" lon="0.255439">
        <ele>127.065075</ele>
        <time>2025-06-08T08:10:50.000Z</time>
      </trkpt>
      <trkpt lat="50.754978" lon="0.254361">
        <ele>130.485756</ele>
        <time>2025-06-08T08:10:58.000Z</time>
      </trkpt>
      <trkpt lat="50.755337" lon="0.253177">
        <ele>134.396302</ele>
        <time>2025-06-08T08:11:07.000Z</time>
      </trkpt>
      <trkpt lat="50.75552" lon="0.25264">
        <ele>136.072184</ele>
        <time>2025-06-08T08:11:11.000Z</time>
      </trkpt>
      <trkpt lat="50.755625" lon="0.252463">
        <ele>136.691438</ele>
        <time>2025-06-08T08:11:13.000Z</time>
      </trkpt>
      <trkpt lat="50.756132" lon="0.25184">
        <ele>139.412533</ele>
        <time>2025-06-08T08:11:20.000Z</time>
      </trkpt>
      <trkpt lat="50.758719" lon="0.249119">
        <ele>151.520572</ele>
        <time>2025-06-08T08:11:55.000Z</time>
      </trkpt>
      <trkpt lat="50.759233" lon="0.24864">
        <ele>153.031303</ele>
        <time>2025-06-08T08:12:02.000Z</time>
      </trkpt>
      <trkpt lat="50.759865" lon="0.248005">
        <ele>154.713637</ele>
        <time>2025-06-08T08:12:10.000Z</time>
      </trkpt>
      <trkpt lat="50.760304" lon="0.247496">
        <ele>154.787335</ele>
        <time>2025-06-08T08:12:16.000Z</time>
      </trkpt>
      <trkpt lat="50.761048" lon="0.246412">
        <ele>154.926847</ele>
        <time>2025-06-08T08:12:27.000Z</time>
      </trkpt>
      <trkpt lat="50.761381" lon="0.24586">
        <ele>154.296321</ele>
        <time>2025-06-08T08:12:32.000Z</time>
      </trkpt>
      <trkpt lat="50.761801" lon="0.245064">
        <ele>153.008766</ele>
        <time>2025-06-08T08:12:39.000Z</time>
      </trkpt>
      <trkpt lat="50.761892" lon="0.244789">
        <ele>152.611345</ele>
        <time>2025-06-08T08:12:41.000Z</time>
      </trkpt>
      <trkpt lat="50.761926" lon="0.244421">
        <ele>152.153854</ele>
        <time>2025-06-08T08:12:44.000Z</time>
      </trkpt>
      <trkpt lat="50.761878" lon="0.243752">
        <ele>151.34105</ele>
        <time>2025-06-08T08:12:49.000Z</time>
      </trkpt>
      <trkpt lat="50.761548" lon="0.240891">
        <ele>148.551554</ele>
        <time>2025-06-08T08:13:09.000Z</time>
      </trkpt>
      <trkpt lat="50.761328" lon="0.238889">
        <ele>146.106134</ele>
        <time>2025-06-08T08:13:23.000Z</time>
      </trkpt>
      <trkpt lat="50.761317" lon="0.237964">
        <ele>145.19647</ele>
        <time>2025-06-08T08:13:30.000Z</time>
      </trkpt>
      <trkpt lat="50.761355" lon="0.237089">
        <ele>144.932927</ele>
        <time>2025-06-08T08:13:36.000Z</time>
      </trkpt>
      <trkpt lat="50.76138" lon="0.236929">
        <ele>144.883454</ele>
        <time>2025-06-08T08:13:37.000Z</time>
      </trkpt>
      <trkpt lat="50.761454" lon="0.236686">
        <ele>144.801047</ele>
        <time>2025-06-08T08:13:39.000Z</time>
      </trkpt>
      <trkpt lat="50.761712" lon="0.236368">
        <ele>144.643459</ele>
        <time>2025-06-08T08:13:43.000Z</time>
      </trkpt>
      <trkpt lat="50.761735" lon="0.236432">
        <ele>144.619058</ele>
        <time>2025-06-08T08:13:44.000Z</time>
      </trkpt>
      <trkpt lat="50.761793" lon="0.23658">
        <ele>144.569695</ele>
        <time>2025-06-08T08:13:45.000Z</time>
      </trkpt>
      <trkpt lat="50.761553" lon="0.236722">
        <ele>144.448062</ele>
        <time>2025-06-08T08:13:48.000Z</time>
      </trkpt>
      <trkpt lat="50.761387" lon="0.236935">
        <ele>144.595371</ele>
        <time>2025-06-08T08:13:50.000Z</time>
      </trkpt>
      <trkpt lat="50.761344" lon="0.237092">
        <ele>144.737489</ele>
        <time>2025-06-08T08:13:51.000Z</time>
      </trkpt>
      <trkpt lat="50.76131" lon="0.23796">
        <ele>145.494834</ele>
        <time>2025-06-08T08:13:57.000Z</time>
      </trkpt>
      <trkpt lat="50.761342" lon="0.23889">
        <ele>146.312159</ele>
        <time>2025-06-08T08:14:04.000Z</time>
      </trkpt>
      <trkpt lat="50.761539" lon="0.240881">
        <ele>148.356506</ele>
        <time>2025-06-08T08:14:18.000Z</time>
      </trkpt>
      <trkpt lat="50.76189" lon="0.243754">
        <ele>151.605743</ele>
        <time>2025-06-08T08:14:39.000Z</time>
      </trkpt>
      <trkpt lat="50.761927" lon="0.244417">
        <ele>152.360957</ele>
        <time>2025-06-08T08:14:44.000Z</time>
      </trkpt>
      <trkpt lat="50.761895" lon="0.244779">
        <ele>152.777106</ele>
        <time>2025-06-08T08:14:47.000Z</time>
      </trkpt>
      <trkpt lat="50.761809" lon="0.245081">
        <ele>153.138617</ele>
        <time>2025-06-08T08:14:49.000Z</time>
      </trkpt>
      <trkpt lat="50.761391" lon="0.245861">
        <ele>153.947801</ele>
        <time>2025-06-08T08:14:56.000Z</time>
      </trkpt>
      <trkpt lat="50.761037" lon="0.2464">
        <ele>154.537495</ele>
        <time>2025-06-08T08:15:01.000Z</time>
      </trkpt>
      <trkpt lat="50.760302" lon="0.247485">
        <ele>154.987524</ele>
        <time>2025-06-08T08:15:12.000Z</time>
      </trkpt>
      <trkpt lat="50.759874" lon="0.248004">
        <ele>154.331104</ele>
        <time>2025-06-08T08:15:18.000Z</time>
      </trkpt>
      <trkpt lat="50.75924" lon="0.248644">
        <ele>153.414391</ele>
        <time>2025-06-08T08:15:26.000Z</time>
      </trkpt>
      <trkpt lat="50.758719" lon="0.249124">
        <ele>151.707874</ele>
        <time>2025-06-08T08:15:33.000Z</time>
      </trkpt>
      <trkpt lat="50.75614" lon="0.251834">
        <ele>139.379715</ele>
        <time>2025-06-08T08:16:07.000Z</time>
      </trkpt>
      <trkpt lat="50.755616" lon="0.252454">
        <ele>136.690388</ele>
        <time>2025-06-08T08:16:14.000Z</time>
      </trkpt>
      <trkpt lat="50.755529" lon="0.25264">
        <ele>136.080161</ele>
        <time>2025-06-08T08:16:16.000Z</time>
      </trkpt>
      <trkpt lat="50.755336" lon="0.253168">
        <ele>134.492168</ele>
        <time>2025-06-08T08:16:20.000Z</time>
      </trkpt>
      <trkpt lat="50.754967" lon="0.254368">
        <ele>130.677452</ele>
        <time>2025-06-08T08:16:29.000Z</time>
      </trkpt>
      <trkpt lat="50.75469" lon="0.255451">
        <ele>125.873046</ele>
        <time>2025-06-08T08:16:37.000Z</time>
      </trkpt>
      <trkpt lat="50.754651" lon="0.255476">
        <ele>125.601047</ele>
        <time>2025-06-08T08:16:37.000Z</time>
      </trkpt>
      <trkpt lat="50.754575" lon="0.255757">
        <ele>124.35848</ele>
        <time>2025-06-08T08:16:39.000Z</time>
      </trkpt>
      <trkpt lat="50.754439" lon="0.256447">
        <ele>121.38564</ele>
        <time>2025-06-08T08:16:44.000Z</time>
      </trkpt>
      <trkpt lat="50.754405" lon="0.25679">
        <ele>119.965074</ele>
        <time>2025-06-08T08:16:46.000Z</time>
      </trkpt>
      <trkpt lat="50.754415" lon="0.257461">
        <ele>116.306489</ele>
        <time>2025-06-08T08:16:51.000Z</time>
      </trkpt>
      <trkpt lat="50.75454" lon="0.258668">
        <ele>109.563051</ele>
        <time>2025-06-08T08:17:00.000Z</time>
      </trkpt>
      <trkpt lat="50.754522" lon="0.25886">
        <ele>108.497933</ele>
        <time>2025-06-08T08:17:01.000Z</time>
      </trkpt>
      <trkpt lat="50.754488" lon="0.259079">
        <ele>107.224716</ele>
        <time>2025-06-08T08:17:03.000Z</time>
      </trkpt>
      <trkpt lat="50.754384" lon="0.259279">
        <ele>105.746009</ele>
        <time>2025-06-08T08:17:05.000Z</time>
      </trkpt>
      <trkpt lat="50.754314" lon="0.259339">
        <ele>105.011549</ele>
        <time>2025-06-08T08:17:06.000Z</time>
      </trkpt>
      <trkpt lat="50.754127" lon="0.259335">
        <ele>104.266561</ele>
        <time>2025-06-08T08:17:08.000Z</time>
      </trkpt>
      <trkpt lat="50.753579" lon="0.258989">
        <ele>104.992346</ele>
        <time>2025-06-08T08:17:15.000Z</time>
      </trkpt>
      <trkpt lat="50.753201" lon="0.258643">
        <ele>105.524586</ele>
        <time>2025-06-08T08:17:20.000Z</time>
      </trkpt>
      <trkpt lat="50.753066" lon="0.25856">
        <ele>105.704399</ele>
        <time>2025-06-08T08:17:22.000Z</time>
      </trkpt>
      <trkpt lat="50.75281" lon="0.25855">
        <ele>106.019713</ele>
        <time>2025-06-08T08:17:25.000Z</time>
      </trkpt>
      <trkpt lat="50.752691" lon="0.258595">
        <ele>106.171893</ele>
        <time>2025-06-08T08:17:26.000Z</time>
      </trkpt>
      <trkpt lat="50.752039" lon="0.259124">
        <ele>103.74323</ele>
        <time>2025-06-08T08:17:34.000Z</time>
      </trkpt>
      <trkpt lat="50.751973" lon="0.259221">
        <ele>103.376719</ele>
        <time>2025-06-08T08:17:35.000Z</time>
      </trkpt>
      <trkpt lat="50.751939" lon="0.259416">
        <ele>102.772233</ele>
        <time>2025-06-08T08:17:36.000Z</time>
      </trkpt>
      <trkpt lat="50.751948" lon="0.259508">
        <ele>102.461301</ele>
        <time>2025-06-08T08:17:37.000Z</time>
      </trkpt>
      <trkpt lat="50.751989" lon="0.259605">
        <ele>102.14702</ele>
        <time>2025-06-08T08:17:38.000Z</time>
      </trkpt>
      <trkpt lat="50.752108" lon="0.259682">
        <ele>101.583591</ele>
        <time>2025-06-08T08:17:39.000Z</time>
      </trkpt>
      <trkpt lat="50.752181" lon="0.259692">
        <ele>101.236423</ele>
        <time>2025-06-08T08:17:40.000Z</time>
      </trkpt>
      <trkpt lat="50.753323" lon="0.25933">
        <ele>96.12936</ele>
        <time>2025-06-08T08:17:53.000Z</time>
      </trkpt>
      <trkpt lat="50.753454" lon="0.259437">
        <ele>95.532861</ele>
        <time>2025-06-08T08:17:55.000Z</time>
      </trkpt>
      <trkpt lat="50.753472" lon="0.259521">
        <ele>95.27938</ele>
        <time>2025-06-08T08:17:56.000Z</time>
      </trkpt>
      <trkpt lat="50.753494" lon="0.259693">
        <ele>94.865294</ele>
        <time>2025-06-08T08:17:57.000Z</time>
      </trkpt>
      <trkpt lat="50.753479" lon="0.259806">
        <ele>94.555983</ele>
        <time>2025-06-08T08:17:58.000Z</time>
      </trkpt>
      <trkpt lat="50.753436" lon="0.259877">
        <ele>94.273108</ele>
        <time>2025-06-08T08:17:59.000Z</time>
      </trkpt>
      <trkpt lat="50.752036" lon="0.260984">
        <ele>88.344545</ele>
        <time>2025-06-08T08:18:16.000Z</time>
      </trkpt>
      <trkpt lat="50.75198" lon="0.261086">
        <ele>88.074537</ele>
        <time>2025-06-08T08:18:17.000Z</time>
      </trkpt>
      <trkpt lat="50.75191" lon="0.261295">
        <ele>87.559387</ele>
        <time>2025-06-08T08:18:19.000Z</time>
      </trkpt>
      <trkpt lat="50.751953" lon="0.261614">
        <ele>86.852361</ele>
        <time>2025-06-08T08:18:21.000Z</time>
      </trkpt>
      <trkpt lat="50.751961" lon="0.261794">
        <ele>86.435906</ele>
        <time>2025-06-08T08:18:22.000Z</time>
      </trkpt>
      <trkpt lat="50.752" lon="0.262089">
        <ele>85.80351</ele>
        <time>2025-06-08T08:18:24.000Z</time>
      </trkpt>
      <trkpt lat="50.752027" lon="0.262264">
        <ele>85.389613</ele>
        <time>2025-06-08T08:18:25.000Z</time>
      </trkpt>
      <trkpt lat="50.752083" lon="0.263396">
        <ele>79.750449</ele>
        <time>2025-06-08T08:18:33.000Z</time>
      </trkpt>
      <trkpt lat="50.752154" lon="0.263995">
        <ele>75.830012</ele>
        <time>2025-06-08T08:18:37.000Z</time>
      </trkpt>
      <trkpt lat="50.752365" lon="0.265127">
        <ele>68.233356</ele>
        <time>2025-06-08T08:18:45.000Z</time>
      </trkpt>
      <trkpt lat="50.752596" lon="0.265936">
        <ele>63.006005</ele>
        <time>2025-06-08T08:18:51.000Z</time>
      </trkpt>
      <trkpt lat="50.752632" lon="0.266171">
        <ele>61.723447</ele>
        <time>2025-06-08T08:18:53.000Z</time>
      </trkpt>
      <trkpt lat="50.752622" lon="0.266387">
        <ele>60.450326</ele>
        <time>2025-06-08T08:18:55.000Z</time>
      </trkpt>
      <trkpt lat="50.752538" lon="0.266602">
        <ele>59.016613</ele>
        <time>2025-06-08T08:18:57.000Z</time>
      </trkpt>
      <trkpt lat="50.752106" lon="0.26706">
        <ele>54.363954</ele>
        <time>2025-06-08T08:19:03.000Z</time>
      </trkpt>
      <trkpt lat="50.75203" lon="0.267255">
        <ele>53.14838</ele>
        <time>2025-06-08T08:19:05.000Z</time>
      </trkpt>
      <trkpt lat="50.75209" lon="0.267452">
        <ele>51.843926</ele>
        <time>2025-06-08T08:19:07.000Z</time>
      </trkpt>
      <trkpt lat="50.752479" lon="0.268264">
        <ele>46.882171</ele>
        <time>2025-06-08T08:19:14.000Z</time>
      </trkpt>
      <trkpt lat="50.752579" lon="0.268478">
        <ele>45.66085</ele>
        <time>2025-06-08T08:19:16.000Z</time>
      </trkpt>
      <trkpt lat="50.753099" lon="0.269555">
        <ele>39.259049</ele>
        <time>2025-06-08T08:19:26.000Z</time>
      </trkpt>
      <trkpt lat="50.753228" lon="0.269813">
        <ele>37.676682</ele>
        <time>2025-06-08T08:19:28.000Z</time>
      </trkpt>
      <trkpt lat="50.753348" lon="0.270086">
        <ele>36.318688</ele>
        <time>2025-06-08T08:19:30.000Z</time>
      </trkpt>
      <trkpt lat="50.753716" lon="0.270924">
        <ele>32.491132</ele>
        <time>2025-06-08T08:19:37.000Z</time>
      </trkpt>
      <trkpt lat="50.753895" lon="0.271301">
        <ele>30.717122</ele>
        <time>2025-06-08T08:19:40.000Z</time>
      </trkpt>
      <trkpt lat="50.754665" lon="0.272857">
        <ele>24.746411</ele>
        <time>2025-06-08T08:19:54.000Z</time>
      </trkpt>
      <trkpt lat="50.755018" lon="0.273499">
        <ele>23.102844</ele>
        <time>2025-06-08T08:20:00.000Z</time>
      </trkpt>
      <trkpt lat="50.755432" lon="0.274248">
        <ele>21.153241</ele>
        <time>2025-06-08T08:20:07.000Z</time>
      </trkpt>
      <trkpt lat="50.755668" lon="0.274725">
        <ele>19.960658</ele>
        <time>2025-06-08T08:20:11.000Z</time>
      </trkpt>
      <trkpt lat="50.756181" lon="0.275774">
        <ele>17.471941</ele>
        <time>2025-06-08T08:20:20.000Z</time>
      </trkpt>
      <trkpt lat="50.756382" lon="0.276274">
        <ele>16.303115</ele>
        <time>2025-06-08T08:20:24.000Z</time>
      </trkpt>
      <trkpt lat="50.757069" lon="0.277948">
        <ele>13.489167</ele>
        <time>2025-06-08T08:20:38.000Z</time>
      </trkpt>
      <trkpt lat="50.757497" lon="0.278992">
        <ele>11.935955</ele>
        <time>2025-06-08T08:20:47.000Z</time>
      </trkpt>
      <trkpt lat="50.758571" lon="0.281465">
        <ele>9.41747</ele>
        <time>2025-06-08T08:21:08.000Z</time>
      </trkpt>
      <trkpt lat="50.758772" lon="0.281844">
        <ele>9.291256</ele>
        <time>2025-06-08T08:21:11.000Z</time>
      </trkpt>
      <trkpt lat="50.759283" lon="0.282725">
        <ele>8.988055</ele>
        <time>2025-06-08T08:21:19.000Z</time>
      </trkpt>
      <trkpt lat="50.759394" lon="0.282874">
        <ele>8.9242</ele>
        <time>2025-06-08T08:21:21.000Z</time>
      </trkpt>
      <trkpt lat="50.759573" lon="0.283097">
        <ele>8.83283</ele>
        <time>2025-06-08T08:21:24.000Z</time>
      </trkpt>
      <trkpt lat="50.759834" lon="0.283404">
        <ele>8.705229</ele>
        <time>2025-06-08T08:21:28.000Z</time>
      </trkpt>
      <trkpt lat="50.760347" lon="0.284016">
        <ele>8.61457792238</ele>
        <time>2025-06-08T08:21:35.000Z</time>
      </trkpt>
      <trkpt lat="50.760572" lon="0.284298">
        <ele>8.57407743623</ele>
        <time>2025-06-08T08:21:38.000Z</time>
      </trkpt>
      <trkpt lat="50.760899" lon="0.28468">
        <ele>8.51672700169</ele>
        <time>2025-06-08T08:21:43.000Z</time>
      </trkpt>
      <trkpt lat="50.760974" lon="0.284803">
        <ele>8.50148397425</ele>
        <time>2025-06-08T08:21:44.000Z</time>
      </trkpt>
      <trkpt lat="50.760938" lon="0.28489">
        <ele>8.49220823785</ele>
        <time>2025-06-08T08:21:45.000Z</time>
      </trkpt>
      <trkpt lat="50.760289" lon="0.28412">
        <ele>8.37775315278</ele>
        <time>2025-06-08T08:21:54.000Z</time>
      </trkpt>
    </trkseg>
  </trk>
</gpx>

<!--
Performance optimized by W3 Total Cache. Learn more: https://www.boldgrid.com/w3-total-cache/?utm_source=w3tc&utm_medium=footer_comment&utm_campaign=free_plugin

Page Caching using Disk: Enhanced{w3tc_pagecache_reject_reason} 

Served from: www.aquabike.world @ 2026-05-10 23:57:13 by W3 Total Cache
-->